sensor_id;sensor_type;location;lat;lon;timestamp;pressure;altitude;pressure_sealevel;temperature;humidity
10700;BME280;5401;41.986;21.452;2023-06-22T00:01:53;98642.72;;;25.72;57.89
10700;BME280;5401;41.986;21.452;2023-06-22T00:04:20;98646.38;;;25.68;57.92
10700;BME280;5401;41.986;21.452;2023-06-22T00:06:48;98645.66;;;25.62;57.78
10700;BME280;5401;41.986;21.452;2023-06-22T00:09:15;98638.63;;;25.56;58.46
10700;BME280;5401;41.986;21.452;2023-06-22T00:11:43;98649.06;;;25.54;58.44
10700;BME280;5401;41.986;21.452;2023-06-22T00:14:12;98654.03;;;25.52;58.90
10700;BME280;5401;41.986;21.452;2023-06-22T00:16:40;98642.41;;;25.42;59.15
10700;BME280;5401;41.986;21.452;2023-06-22T00:19:08;98647.03;;;25.28;59.52
10700;BME280;5401;41.986;21.452;2023-06-22T00:21:37;98645.81;;;25.21;59.71
10700;BME280;5401;41.986;21.452;2023-06-22T00:24:05;98642.38;;;25.10;59.99
10700;BME280;5401;41.986;21.452;2023-06-22T00:26:33;98647.53;;;24.99;60.33
10700;BME280;5401;41.986;21.452;2023-06-22T00:29:01;98644.28;;;24.97;60.97
10700;BME280;5401;41.986;21.452;2023-06-22T00:31:30;98642.09;;;25.12;60.60
10700;BME280;5401;41.986;21.452;2023-06-22T00:33:57;98647.13;;;25.23;60.23
10700;BME280;5401;41.986;21.452;2023-06-22T00:36:25;98642.28;;;25.34;60.17
10700;BME280;5401;41.986;21.452;2023-06-22T00:38:52;98637.75;;;25.43;60.43
10700;BME280;5401;41.986;21.452;2023-06-22T00:41:19;98639.78;;;25.50;60.04
10700;BME280;5401;41.986;21.452;2023-06-22T00:43:47;98647.66;;;25.57;59.85
10700;BME280;5401;41.986;21.452;2023-06-22T00:46:14;98649.53;;;25.61;59.67
10700;BME280;5401;41.986;21.452;2023-06-22T00:48:44;98650.84;;;25.64;60.08
10700;BME280;5401;41.986;21.452;2023-06-22T00:51:12;98654.00;;;25.71;60.11
10700;BME280;5401;41.986;21.452;2023-06-22T00:53:39;98653.09;;;25.75;60.09
10700;BME280;5401;41.986;21.452;2023-06-22T00:56:07;98662.22;;;25.71;59.64
10700;BME280;5401;41.986;21.452;2023-06-22T00:58:35;98671.66;;;25.65;59.49
10700;BME280;5401;41.986;21.452;2023-06-22T01:01:03;98672.13;;;25.53;60.11
10700;BME280;5401;41.986;21.452;2023-06-22T01:03:30;98672.88;;;25.41;59.87
10700;BME280;5401;41.986;21.452;2023-06-22T01:06:06;98668.53;;;25.21;60.36
10700;BME280;5401;41.986;21.452;2023-06-22T01:08:41;98661.13;;;25.04;60.67
10700;BME280;5401;41.986;21.452;2023-06-22T01:11:15;98661.00;;;24.95;60.69
10700;BME280;5401;41.986;21.452;2023-06-22T01:13:50;98658.59;;;24.71;60.94
10700;BME280;5401;41.986;21.452;2023-06-22T01:16:25;98678.06;;;24.69;61.50
10700;BME280;5401;41.986;21.452;2023-06-22T01:18:57;98677.94;;;24.56;61.59
10700;BME280;5401;41.986;21.452;2023-06-22T01:21:31;98680.88;;;24.41;62.17
10700;BME280;5401;41.986;21.452;2023-06-22T01:24:11;98683.75;;;24.31;62.30
10700;BME280;5401;41.986;21.452;2023-06-22T01:26:56;98683.28;;;24.24;62.73
10700;BME280;5401;41.986;21.452;2023-06-22T01:29:27;98689.56;;;24.20;63.04
10700;BME280;5401;41.986;21.452;2023-06-22T01:31:57;98688.25;;;24.17;63.09
10700;BME280;5401;41.986;21.452;2023-06-22T01:34:24;98689.88;;;24.18;63.17
10700;BME280;5401;41.986;21.452;2023-06-22T01:36:52;98688.25;;;24.17;63.27
10700;BME280;5401;41.986;21.452;2023-06-22T01:39:21;98691.56;;;24.14;63.37
10700;BME280;5401;41.986;21.452;2023-06-22T01:41:49;98695.19;;;24.10;63.60
10700;BME280;5401;41.986;21.452;2023-06-22T01:44:17;98698.22;;;24.08;63.99
10700;BME280;5401;41.986;21.452;2023-06-22T01:46:48;98688.06;;;24.09;64.08
10700;BME280;5401;41.986;21.452;2023-06-22T01:49:16;98704.78;;;24.07;63.95
10700;BME280;5401;41.986;21.452;2023-06-22T01:51:43;98708.13;;;23.99;64.33
10700;BME280;5401;41.986;21.452;2023-06-22T01:54:11;98705.75;;;23.93;64.41
10700;BME280;5401;41.986;21.452;2023-06-22T01:56:39;98714.25;;;23.92;64.60
10700;BME280;5401;41.986;21.452;2023-06-22T01:59:17;98709.09;;;23.85;64.84
10700;BME280;5401;41.986;21.452;2023-06-22T02:01:52;98712.97;;;23.84;65.14
10700;BME280;5401;41.986;21.452;2023-06-22T02:04:25;98702.81;;;23.85;64.89
10700;BME280;5401;41.986;21.452;2023-06-22T02:06:56;98705.56;;;23.85;65.51
10700;BME280;5401;41.986;21.452;2023-06-22T02:09:26;98707.75;;;23.83;65.39
10700;BME280;5401;41.986;21.452;2023-06-22T02:11:56;98707.22;;;23.81;65.66
10700;BME280;5401;41.986;21.452;2023-06-22T02:14:24;98705.63;;;23.80;65.78
10700;BME280;5401;41.986;21.452;2023-06-22T02:16:53;98709.75;;;23.77;65.61
10700;BME280;5401;41.986;21.452;2023-06-22T02:19:25;98712.25;;;23.74;65.87
10700;BME280;5401;41.986;21.452;2023-06-22T02:21:54;98711.72;;;23.72;66.24
10700;BME280;5401;41.986;21.452;2023-06-22T02:24:22;98713.41;;;23.63;66.25
10700;BME280;5401;41.986;21.452;2023-06-22T02:26:50;98707.72;;;23.55;66.70
10700;BME280;5401;41.986;21.452;2023-06-22T02:29:17;98707.19;;;23.53;66.93
10700;BME280;5401;41.986;21.452;2023-06-22T02:31:45;98708.31;;;23.47;67.12
10700;BME280;5401;41.986;21.452;2023-06-22T02:34:14;98711.66;;;23.39;67.26
10700;BME280;5401;41.986;21.452;2023-06-22T02:36:44;98714.97;;;23.36;67.64
10700;BME280;5401;41.986;21.452;2023-06-22T02:39:19;98697.00;;;23.30;67.47
10700;BME280;5401;41.986;21.452;2023-06-22T02:41:48;98704.88;;;23.36;67.75
10700;BME280;5401;41.986;21.452;2023-06-22T02:44:15;98703.78;;;23.32;67.77
10700;BME280;5401;41.986;21.452;2023-06-22T02:46:43;98703.31;;;23.26;67.99
10700;BME280;5401;41.986;21.452;2023-06-22T02:49:11;98714.25;;;23.21;67.89
10700;BME280;5401;41.986;21.452;2023-06-22T02:51:45;98716.50;;;23.14;68.40
10700;BME280;5401;41.986;21.452;2023-06-22T02:54:12;98717.63;;;23.08;68.38
10700;BME280;5401;41.986;21.452;2023-06-22T02:56:40;98709.81;;;22.92;68.39
10700;BME280;5401;41.986;21.452;2023-06-22T02:59:09;98718.63;;;22.79;68.76
10700;BME280;5401;41.986;21.452;2023-06-22T03:01:37;98717.31;;;22.66;69.84
10700;BME280;5401;41.986;21.452;2023-06-22T03:04:06;98717.91;;;22.58;70.21
10700;BME280;5401;41.986;21.452;2023-06-22T03:06:34;98722.50;;;22.58;70.06
10700;BME280;5401;41.986;21.452;2023-06-22T03:09:04;98729.59;;;22.64;70.66
10700;BME280;5401;41.986;21.452;2023-06-22T03:11:32;98723.53;;;22.72;70.52
10700;BME280;5401;41.986;21.452;2023-06-22T03:14:00;98721.56;;;22.82;70.44
10700;BME280;5401;41.986;21.452;2023-06-22T03:16:28;98728.66;;;22.93;70.02
10700;BME280;5401;41.986;21.452;2023-06-22T03:18:55;98725.56;;;23.04;69.58
10700;BME280;5401;41.986;21.452;2023-06-22T03:21:23;98739.13;;;23.24;69.14
10700;BME280;5401;41.986;21.452;2023-06-22T03:23:51;98733.75;;;23.47;68.82
10700;BME280;5401;41.986;21.452;2023-06-22T03:26:20;98747.81;;;23.69;68.62
10700;BME280;5401;41.986;21.452;2023-06-22T03:28:47;98749.38;;;23.80;67.81
10700;BME280;5401;41.986;21.452;2023-06-22T03:31:15;98755.31;;;23.87;67.63
10700;BME280;5401;41.986;21.452;2023-06-22T03:33:42;98761.84;;;23.91;67.50
10700;BME280;5401;41.986;21.452;2023-06-22T03:36:09;98752.69;;;24.05;67.24
10700;BME280;5401;41.986;21.452;2023-06-22T03:38:37;98756.06;;;24.25;66.82
10700;BME280;5401;41.986;21.452;2023-06-22T03:41:04;98752.22;;;24.49;66.28
10700;BME280;5401;41.986;21.452;2023-06-22T03:43:33;98764.97;;;24.82;65.79
10700;BME280;5401;41.986;21.452;2023-06-22T03:46:01;98768.69;;;25.14;64.58
10700;BME280;5401;41.986;21.452;2023-06-22T03:48:28;98770.78;;;25.58;63.93
10700;BME280;5401;41.986;21.452;2023-06-22T03:50:55;98763.91;;;25.92;62.91
10700;BME280;5401;41.986;21.452;2023-06-22T03:53:23;98765.34;;;26.21;61.73
10700;BME280;5401;41.986;21.452;2023-06-22T03:55:51;98780.22;;;26.47;61.29
10700;BME280;5401;41.986;21.452;2023-06-22T03:58:20;98771.31;;;26.68;60.79
10700;BME280;5401;41.986;21.452;2023-06-22T04:00:50;98771.91;;;27.05;60.18
10700;BME280;5401;41.986;21.452;2023-06-22T04:03:21;98773.38;;;27.51;59.14
10700;BME280;5401;41.986;21.452;2023-06-22T04:05:48;98785.59;;;27.80;58.51
10700;BME280;5401;41.986;21.452;2023-06-22T04:08:16;98777.81;;;28.26;57.46
10700;BME280;5401;41.986;21.452;2023-06-22T04:10:43;98775.13;;;28.64;56.54
10700;BME280;5401;41.986;21.452;2023-06-22T04:13:11;98773.66;;;28.97;55.81
10700;BME280;5401;41.986;21.452;2023-06-22T04:15:38;98780.25;;;29.26;55.13
10700;BME280;5401;41.986;21.452;2023-06-22T04:18:07;98780.16;;;29.73;54.29
10700;BME280;5401;41.986;21.452;2023-06-22T04:20:34;98773.28;;;30.20;53.14
10700;BME280;5401;41.986;21.452;2023-06-22T04:23:02;98777.28;;;30.56;52.26
10700;BME280;5401;41.986;21.452;2023-06-22T04:25:29;98787.56;;;30.93;51.67
10700;BME280;5401;41.986;21.452;2023-06-22T04:27:57;98779.69;;;31.03;51.39
10700;BME280;5401;41.986;21.452;2023-06-22T04:30:24;98787.53;;;31.30;50.96
10700;BME280;5401;41.986;21.452;2023-06-22T04:32:52;98790.16;;;31.55;50.29
10700;BME280;5401;41.986;21.452;2023-06-22T04:35:25;98778.81;;;31.89;49.42
10700;BME280;5401;41.986;21.452;2023-06-22T04:37:55;98795.69;;;32.16;49.28
10700;BME280;5401;41.986;21.452;2023-06-22T04:40:23;98798.00;;;32.34;48.92
10700;BME280;5401;41.986;21.452;2023-06-22T04:42:51;98797.59;;;32.68;47.89
10700;BME280;5401;41.986;21.452;2023-06-22T04:45:21;98789.09;;;33.08;47.44
10700;BME280;5401;41.986;21.452;2023-06-22T04:47:49;98795.00;;;33.54;46.54
10700;BME280;5401;41.986;21.452;2023-06-22T04:50:16;98794.59;;;33.79;45.68
10700;BME280;5401;41.986;21.452;2023-06-22T04:52:48;98792.94;;;34.02;45.81
10700;BME280;5401;41.986;21.452;2023-06-22T04:55:16;98798.00;;;34.39;45.35
10700;BME280;5401;41.986;21.452;2023-06-22T04:57:45;98788.91;;;34.69;44.60
10700;BME280;5401;41.986;21.452;2023-06-22T05:00:16;98799.47;;;34.91;44.51
10700;BME280;5401;41.986;21.452;2023-06-22T05:02:46;98801.81;;;34.89;44.38
10700;BME280;5401;41.986;21.452;2023-06-22T05:05:14;98804.19;;;34.75;44.23
10700;BME280;5401;41.986;21.452;2023-06-22T05:07:43;98799.66;;;34.55;44.71
10700;BME280;5401;41.986;21.452;2023-06-22T05:10:15;98793.72;;;34.41;44.54
10700;BME280;5401;41.986;21.452;2023-06-22T05:12:42;98797.94;;;34.23;44.58
10700;BME280;5401;41.986;21.452;2023-06-22T05:15:10;98797.56;;;34.37;44.65
10700;BME280;5401;41.986;21.452;2023-06-22T05:17:38;98801.19;;;34.53;44.37
10700;BME280;5401;41.986;21.452;2023-06-22T05:20:09;98804.19;;;34.75;44.32
10700;BME280;5401;41.986;21.452;2023-06-22T05:22:37;98800.09;;;34.99;43.83
10700;BME280;5401;41.986;21.452;2023-06-22T05:25:07;98785.25;;;34.80;44.08
10700;BME280;5401;41.986;21.452;2023-06-22T05:27:37;98797.91;;;34.78;43.71
10700;BME280;5401;41.986;21.452;2023-06-22T05:30:06;98807.91;;;34.79;43.54
10700;BME280;5401;41.986;21.452;2023-06-22T05:32:34;98795.81;;;34.59;43.37
10700;BME280;5401;41.986;21.452;2023-06-22T05:35:02;98803.53;;;34.51;43.32
10700;BME280;5401;41.986;21.452;2023-06-22T05:37:29;98809.25;;;34.42;43.36
10700;BME280;5401;41.986;21.452;2023-06-22T05:39:57;98808.47;;;34.30;43.68
10700;BME280;5401;41.986;21.452;2023-06-22T05:42:24;98801.94;;;34.38;43.35
10700;BME280;5401;41.986;21.452;2023-06-22T05:44:54;98800.69;;;34.62;43.01
10700;BME280;5401;41.986;21.452;2023-06-22T05:47:21;98792.13;;;34.55;42.57
10700;BME280;5401;41.986;21.452;2023-06-22T05:49:49;98800.56;;;34.59;42.22
10700;BME280;5401;41.986;21.452;2023-06-22T05:52:16;98809.09;;;34.66;42.16
10700;BME280;5401;41.986;21.452;2023-06-22T05:54:44;98810.91;;;34.58;42.41
10700;BME280;5401;41.986;21.452;2023-06-22T05:57:11;98809.19;;;34.69;41.83
10700;BME280;5401;41.986;21.452;2023-06-22T05:59:38;98805.91;;;34.94;41.67
10700;BME280;5401;41.986;21.452;2023-06-22T06:02:09;98803.22;;;35.13;41.35
10700;BME280;5401;41.986;21.452;2023-06-22T06:04:37;98800.91;;;35.15;41.49
10700;BME280;5401;41.986;21.452;2023-06-22T06:07:04;98796.41;;;35.26;41.57
10700;BME280;5401;41.986;21.452;2023-06-22T06:09:32;98796.22;;;35.34;40.89
10700;BME280;5401;41.986;21.452;2023-06-22T06:12:00;98796.91;;;35.47;41.06
10700;BME280;5401;41.986;21.452;2023-06-22T06:14:29;98798.47;;;35.63;40.68
10700;BME280;5401;41.986;21.452;2023-06-22T06:16:56;98796.84;;;35.77;40.39
10700;BME280;5401;41.986;21.452;2023-06-22T06:19:25;98801.63;;;35.77;40.69
10700;BME280;5401;41.986;21.452;2023-06-22T06:21:52;98798.94;;;35.80;40.02
10700;BME280;5401;41.986;21.452;2023-06-22T06:24:20;98797.25;;;35.95;40.10
10700;BME280;5401;41.986;21.452;2023-06-22T06:26:47;98800.19;;;36.01;40.28
10700;BME280;5401;41.986;21.452;2023-06-22T06:29:15;98804.38;;;36.11;39.71
10700;BME280;5401;41.986;21.452;2023-06-22T06:31:43;98793.88;;;36.04;39.53
10700;BME280;5401;41.986;21.452;2023-06-22T06:34:10;98797.38;;;36.01;39.79
10700;BME280;5401;41.986;21.452;2023-06-22T06:36:39;98804.69;;;36.06;39.58
10700;BME280;5401;41.986;21.452;2023-06-22T06:39:07;98797.50;;;36.24;39.22
10700;BME280;5401;41.986;21.452;2023-06-22T06:41:35;98785.50;;;36.42;39.26
10700;BME280;5401;41.986;21.452;2023-06-22T06:44:03;98785.09;;;36.59;38.65
10700;BME280;5401;41.986;21.452;2023-06-22T06:46:30;98779.94;;;36.83;39.01
10700;BME280;5401;41.986;21.452;2023-06-22T06:48:58;98775.47;;;37.01;38.66
10700;BME280;5401;41.986;21.452;2023-06-22T06:51:26;98779.78;;;37.17;38.42
10700;BME280;5401;41.986;21.452;2023-06-22T06:53:55;98785.97;;;37.29;38.28
10700;BME280;5401;41.986;21.452;2023-06-22T06:56:23;98775.88;;;37.25;38.67
10700;BME280;5401;41.986;21.452;2023-06-22T06:58:51;98784.41;;;37.32;38.21
10700;BME280;5401;41.986;21.452;2023-06-22T07:01:18;98785.53;;;37.53;37.83
10700;BME280;5401;41.986;21.452;2023-06-22T07:03:46;98783.31;;;37.62;37.86
10700;BME280;5401;41.986;21.452;2023-06-22T07:06:14;98793.81;;;37.46;37.81
10700;BME280;5401;41.986;21.452;2023-06-22T07:08:42;98793.94;;;37.53;37.58
10700;BME280;5401;41.986;21.452;2023-06-22T07:11:11;98782.81;;;37.56;38.06
10700;BME280;5401;41.986;21.452;2023-06-22T07:13:38;98788.31;;;37.49;37.90
10700;BME280;5401;41.986;21.452;2023-06-22T07:16:06;98788.56;;;37.41;38.24
10700;BME280;5401;41.986;21.452;2023-06-22T07:18:33;98790.41;;;37.56;37.83
10700;BME280;5401;41.986;21.452;2023-06-22T07:21:01;98792.97;;;37.20;38.55
10700;BME280;5401;41.986;21.452;2023-06-22T07:23:29;98791.50;;;37.04;38.24
10700;BME280;5401;41.986;21.452;2023-06-22T07:25:57;98796.47;;;37.13;38.40
10700;BME280;5401;41.986;21.452;2023-06-22T07:28:29;98790.91;;;37.39;38.09
10700;BME280;5401;41.986;21.452;2023-06-22T07:30:57;98784.03;;;37.59;37.77
10700;BME280;5401;41.986;21.452;2023-06-22T07:33:24;98785.75;;;37.67;37.65
10700;BME280;5401;41.986;21.452;2023-06-22T07:35:53;98792.91;;;37.64;37.64
10700;BME280;5401;41.986;21.452;2023-06-22T07:38:20;98784.88;;;37.59;37.75
10700;BME280;5401;41.986;21.452;2023-06-22T07:40:48;98778.88;;;37.61;37.91
10700;BME280;5401;41.986;21.452;2023-06-22T07:43:16;98771.25;;;37.58;37.35
10700;BME280;5401;41.986;21.452;2023-06-22T07:45:49;98782.53;;;37.39;37.64
10700;BME280;5401;41.986;21.452;2023-06-22T07:48:20;98767.47;;;37.21;38.28
10700;BME280;5401;41.986;21.452;2023-06-22T07:50:48;98772.69;;;37.23;38.05
10700;BME280;5401;41.986;21.452;2023-06-22T07:53:15;98773.25;;;37.10;38.22
10700;BME280;5401;41.986;21.452;2023-06-22T07:55:43;98767.66;;;36.87;38.09
10700;BME280;5401;41.986;21.452;2023-06-22T07:58:10;98764.16;;;36.94;38.13
10700;BME280;5401;41.986;21.452;2023-06-22T08:00:38;98765.47;;;37.22;37.98
10700;BME280;5401;41.986;21.452;2023-06-22T08:03:07;98762.88;;;37.58;37.65
10700;BME280;5401;41.986;21.452;2023-06-22T08:05:34;98761.03;;;37.69;37.50
10700;BME280;5401;41.986;21.452;2023-06-22T08:08:01;98771.84;;;37.99;37.27
10700;BME280;5401;41.986;21.452;2023-06-22T08:10:29;98759.25;;;38.16;37.43
10700;BME280;5401;41.986;21.452;2023-06-22T08:12:56;98763.38;;;38.25;37.07
10700;BME280;5401;41.986;21.452;2023-06-22T08:15:26;98762.22;;;38.29;36.94
10700;BME280;5401;41.986;21.452;2023-06-22T08:17:54;98753.09;;;38.32;37.08
10700;BME280;5401;41.986;21.452;2023-06-22T08:20:23;98758.28;;;38.66;36.66
10700;BME280;5401;41.986;21.452;2023-06-22T08:22:50;98758.63;;;39.01;36.37
10700;BME280;5401;41.986;21.452;2023-06-22T08:25:18;98756.59;;;38.98;36.17
10700;BME280;5401;41.986;21.452;2023-06-22T08:27:46;98749.50;;;39.07;35.93
10700;BME280;5401;41.986;21.452;2023-06-22T08:30:14;98748.06;;;39.27;35.75
10700;BME280;5401;41.986;21.452;2023-06-22T08:32:42;98749.44;;;39.54;35.58
10700;BME280;5401;41.986;21.452;2023-06-22T08:35:09;98754.00;;;39.72;35.07
10700;BME280;5401;41.986;21.452;2023-06-22T08:37:38;98744.00;;;39.78;34.91
10700;BME280;5401;41.986;21.452;2023-06-22T08:40:07;98740.00;;;39.79;34.74
10700;BME280;5401;41.986;21.452;2023-06-22T08:42:35;98725.63;;;39.84;34.42
10700;BME280;5401;41.986;21.452;2023-06-22T08:45:04;98745.69;;;39.93;34.53
10700;BME280;5401;41.986;21.452;2023-06-22T08:47:32;98736.84;;;39.91;34.54
10700;BME280;5401;41.986;21.452;2023-06-22T08:49:59;98737.59;;;39.81;34.46
10700;BME280;5401;41.986;21.452;2023-06-22T08:52:28;98734.03;;;39.91;34.66
10700;BME280;5401;41.986;21.452;2023-06-22T08:54:57;98732.03;;;39.91;34.57
10700;BME280;5401;41.986;21.452;2023-06-22T08:57:25;98727.25;;;39.92;34.42
10700;BME280;5401;41.986;21.452;2023-06-22T08:59:52;98716.44;;;39.94;34.54
10700;BME280;5401;41.986;21.452;2023-06-22T09:02:24;98708.31;;;39.75;34.50
10700;BME280;5401;41.986;21.452;2023-06-22T09:04:51;98710.34;;;39.78;34.42
10700;BME280;5401;41.986;21.452;2023-06-22T09:07:21;98706.06;;;40.05;34.24
10700;BME280;5401;41.986;21.452;2023-06-22T09:09:50;98698.50;;;40.26;33.71
10700;BME280;5401;41.986;21.452;2023-06-22T09:12:20;98704.94;;;40.30;33.56
10700;BME280;5401;41.986;21.452;2023-06-22T09:14:51;98692.47;;;40.17;33.62
10700;BME280;5401;41.986;21.452;2023-06-22T09:17:19;98702.88;;;40.09;33.66
10700;BME280;5401;41.986;21.452;2023-06-22T09:19:46;98695.59;;;39.95;33.80
10700;BME280;5401;41.986;21.452;2023-06-22T09:22:14;98700.81;;;39.96;33.63
10700;BME280;5401;41.986;21.452;2023-06-22T09:24:42;98680.34;;;39.92;33.73
10700;BME280;5401;41.986;21.452;2023-06-22T09:27:09;98692.06;;;40.08;33.31
10700;BME280;5401;41.986;21.452;2023-06-22T09:29:38;98682.41;;;40.05;33.19
10700;BME280;5401;41.986;21.452;2023-06-22T09:32:07;98690.06;;;40.12;33.13
10700;BME280;5401;41.986;21.452;2023-06-22T09:34:34;98686.06;;;40.23;32.87
10700;BME280;5401;41.986;21.452;2023-06-22T09:37:02;98688.88;;;40.23;32.63
10700;BME280;5401;41.986;21.452;2023-06-22T09:39:29;98684.81;;;40.04;32.72
10700;BME280;5401;41.986;21.452;2023-06-22T09:41:58;98680.78;;;39.98;32.53
10700;BME280;5401;41.986;21.452;2023-06-22T09:44:26;98682.69;;;39.83;32.36
10700;BME280;5401;41.986;21.452;2023-06-22T09:46:55;98681.88;;;39.79;32.37
10700;BME280;5401;41.986;21.452;2023-06-22T09:49:22;98673.84;;;39.71;32.22
10700;BME280;5401;41.986;21.452;2023-06-22T09:51:50;98676.50;;;39.43;32.36
10700;BME280;5401;41.986;21.452;2023-06-22T09:54:18;98674.34;;;39.20;32.39
10700;BME280;5401;41.986;21.452;2023-06-22T09:56:45;98647.84;;;39.14;32.55
10700;BME280;5401;41.986;21.452;2023-06-22T09:59:13;98658.03;;;39.35;32.35
10700;BME280;5401;41.986;21.452;2023-06-22T10:01:41;98658.94;;;39.53;32.22
10700;BME280;5401;41.986;21.452;2023-06-22T10:04:10;98651.78;;;39.66;32.00
10700;BME280;5401;41.986;21.452;2023-06-22T10:06:38;98657.09;;;39.88;31.81
10700;BME280;5401;41.986;21.452;2023-06-22T10:09:06;98647.00;;;39.70;31.68
10700;BME280;5401;41.986;21.452;2023-06-22T10:11:34;98662.63;;;39.07;31.85
10700;BME280;5401;41.986;21.452;2023-06-22T10:14:03;98657.53;;;38.73;31.96
10700;BME280;5401;41.986;21.452;2023-06-22T10:16:31;98636.41;;;38.36;32.35
10700;BME280;5401;41.986;21.452;2023-06-22T10:18:59;98649.31;;;38.12;32.34
10700;BME280;5401;41.986;21.452;2023-06-22T10:21:28;98652.53;;;37.81;32.16
10700;BME280;5401;41.986;21.452;2023-06-22T10:23:56;98637.78;;;37.84;32.40
10700;BME280;5401;41.986;21.452;2023-06-22T10:26:24;98638.91;;;38.09;31.99
10700;BME280;5401;41.986;21.452;2023-06-22T10:28:54;98633.91;;;38.31;31.76
10700;BME280;5401;41.986;21.452;2023-06-22T10:31:22;98627.59;;;38.34;31.83
10700;BME280;5401;41.986;21.452;2023-06-22T10:33:49;98630.03;;;38.39;31.51
10700;BME280;5401;41.986;21.452;2023-06-22T10:36:17;98639.03;;;38.62;31.59
10700;BME280;5401;41.986;21.452;2023-06-22T10:38:46;98633.22;;;38.84;31.07
10700;BME280;5401;41.986;21.452;2023-06-22T10:41:14;98626.38;;;38.78;31.20
10700;BME280;5401;41.986;21.452;2023-06-22T10:43:42;98624.28;;;38.68;31.17
10700;BME280;5401;41.986;21.452;2023-06-22T10:46:09;98628.41;;;38.35;31.23
10700;BME280;5401;41.986;21.452;2023-06-22T10:48:37;98615.56;;;37.94;31.81
10700;BME280;5401;41.986;21.452;2023-06-22T10:51:05;98617.56;;;37.94;31.66
10700;BME280;5401;41.986;21.452;2023-06-22T10:53:33;98614.84;;;38.01;31.69
10700;BME280;5401;41.986;21.452;2023-06-22T10:56:01;98608.22;;;38.19;31.61
10700;BME280;5401;41.986;21.452;2023-06-22T10:58:29;98604.47;;;38.41;31.20
10700;BME280;5401;41.986;21.452;2023-06-22T11:00:57;98614.69;;;38.69;31.34
10700;BME280;5401;41.986;21.452;2023-06-22T11:03:25;98596.69;;;38.67;30.99
10700;BME280;5401;41.986;21.452;2023-06-22T11:05:52;98596.59;;;38.57;31.34
10700;BME280;5401;41.986;21.452;2023-06-22T11:08:20;98603.72;;;38.47;31.32
10700;BME280;5401;41.986;21.452;2023-06-22T11:10:47;98602.88;;;38.43;31.23
10700;BME280;5401;41.986;21.452;2023-06-22T11:13:17;98594.03;;;38.38;31.42
10700;BME280;5401;41.986;21.452;2023-06-22T11:15:44;98596.59;;;38.57;31.46
10700;BME280;5401;41.986;21.452;2023-06-22T11:18:12;98594.84;;;38.85;31.20
10700;BME280;5401;41.986;21.452;2023-06-22T11:20:42;98598.47;;;38.92;30.96
10700;BME280;5401;41.986;21.452;2023-06-22T11:23:09;98597.94;;;38.76;31.25
10700;BME280;5401;41.986;21.452;2023-06-22T11:25:37;98587.13;;;38.75;31.00
10700;BME280;5401;41.986;21.452;2023-06-22T11:28:08;98601.66;;;38.87;31.27
10700;BME280;5401;41.986;21.452;2023-06-22T11:30:37;98584.91;;;38.97;31.01
10700;BME280;5401;41.986;21.452;2023-06-22T11:33:05;98588.22;;;39.13;30.83
10700;BME280;5401;41.986;21.452;2023-06-22T11:35:32;98595.34;;;39.04;30.76
10700;BME280;5401;41.986;21.452;2023-06-22T11:38:00;98582.53;;;39.03;30.94
10700;BME280;5401;41.986;21.452;2023-06-22T11:40:29;98587.00;;;39.11;30.65
10700;BME280;5401;41.986;21.452;2023-06-22T11:42:57;98585.41;;;39.13;30.87
10700;BME280;5401;41.986;21.452;2023-06-22T11:45:24;98595.00;;;39.16;30.90
10700;BME280;5401;41.986;21.452;2023-06-22T11:47:53;98584.19;;;39.11;30.81
10700;BME280;5401;41.986;21.452;2023-06-22T11:50:20;98586.50;;;38.98;30.51
10700;BME280;5401;41.986;21.452;2023-06-22T11:52:48;98580.34;;;38.76;30.88
10700;BME280;5401;41.986;21.452;2023-06-22T11:55:15;98578.16;;;38.52;31.14
10700;BME280;5401;41.986;21.452;2023-06-22T11:57:54;98582.13;;;38.48;31.22
10700;BME280;5401;41.986;21.452;2023-06-22T12:00:22;98579.09;;;38.70;31.09
10700;BME280;5401;41.986;21.452;2023-06-22T12:02:50;98578.03;;;38.85;30.79
10700;BME280;5401;41.986;21.452;2023-06-22T12:05:20;98566.00;;;38.81;30.91
10700;BME280;5401;41.986;21.452;2023-06-22T12:07:48;98584.09;;;38.97;30.69
10700;BME280;5401;41.986;21.452;2023-06-22T12:10:16;98580.19;;;39.12;30.71
10700;BME280;5401;41.986;21.452;2023-06-22T12:12:43;98578.66;;;39.25;30.44
10700;BME280;5401;41.986;21.452;2023-06-22T12:15:12;98564.31;;;39.36;30.54
10700;BME280;5401;41.986;21.452;2023-06-22T12:17:40;98573.16;;;39.45;30.20
10700;BME280;5401;41.986;21.452;2023-06-22T12:20:08;98561.94;;;39.42;29.94
10700;BME280;5401;41.986;21.452;2023-06-22T12:22:40;98570.31;;;39.38;29.90
10700;BME280;5401;41.986;21.452;2023-06-22T12:25:09;98573.16;;;39.45;30.00
10700;BME280;5401;41.986;21.452;2023-06-22T12:27:37;98568.00;;;39.58;29.82
10700;BME280;5401;41.986;21.452;2023-06-22T12:30:05;98563.22;;;39.65;29.83
10700;BME280;5401;41.986;21.452;2023-06-22T12:32:33;98558.84;;;39.71;29.79
10700;BME280;5401;41.986;21.452;2023-06-22T12:35:00;98553.22;;;39.64;29.64
10700;BME280;5401;41.986;21.452;2023-06-22T12:37:28;98538.00;;;39.65;29.25
10700;BME280;5401;41.986;21.452;2023-06-22T12:39:59;98553.25;;;39.71;29.28
10700;BME280;5401;41.986;21.452;2023-06-22T12:42:26;98545.22;;;39.66;29.22
10700;BME280;5401;41.986;21.452;2023-06-22T12:44:54;98537.63;;;39.70;29.11
10700;BME280;5401;41.986;21.452;2023-06-22T12:47:21;98536.41;;;39.71;28.85
10700;BME280;5401;41.986;21.452;2023-06-22T12:49:49;98535.59;;;39.67;28.75
10700;BME280;5401;41.986;21.452;2023-06-22T12:52:16;98534.00;;;39.63;28.75
10700;BME280;5401;41.986;21.452;2023-06-22T12:54:44;98520.72;;;39.53;28.64
10700;BME280;5401;41.986;21.452;2023-06-22T12:57:13;98522.72;;;39.56;28.44
10700;BME280;5401;41.986;21.452;2023-06-22T12:59:40;98515.84;;;39.36;28.58
10700;BME280;5401;41.986;21.452;2023-06-22T13:02:08;98511.00;;;39.19;28.53
10700;BME280;5401;41.986;21.452;2023-06-22T13:04:35;98501.00;;;39.22;28.60
10700;BME280;5401;41.986;21.452;2023-06-22T13:07:04;98480.81;;;38.89;28.55